Time;durP1;ratioP1;P1;durP2;ratioP2;P2;SDS_P1;SDS_P2;PMS_P1;PMS_P2;Temp;Humidity;BMP_temperature;BMP_pressure;BME280_temperature;BME280_humidity;BME280_pressure;Samples;Min_cycle;Max_cycle;Signal;HPM_P1;HPM_P2
2022/06/07 00:00:45;;;;;;;8.67;4.60;;;;;;;16.41;100.00;96276.19;5055223;28;20486;-77
2022/06/07 00:03:12;;;;;;;4.53;4.13;;;;;;;16.68;100.00;96318.84;5072949;28;20448;-77
2022/06/07 00:05:41;;;;;;;6.07;4.27;;;;;;;16.44;100.00;96309.41;5071437;28;20432;-77
2022/06/07 00:08:08;;;;;;;4.57;4.27;;;;;;;16.18;100.00;96284.34;5071578;28;20957;-77
2022/06/07 00:10:34;;;;;;;4.83;4.03;;;;;;;16.44;100.00;96314.75;5072172;28;21030;-77
2022/06/07 00:13:01;;;;;;;4.20;3.90;;;;;;;16.02;100.00;96272.31;5065057;28;20499;-77
2022/06/07 00:15:28;;;;;;;5.00;4.60;;;;;;;16.44;100.00;96312.84;5092330;28;20935;-77
2022/06/07 00:17:55;;;;;;;4.40;4.00;;;;;;;16.52;100.00;96295.75;5075891;28;20463;-77
2022/06/07 00:20:22;;;;;;;3.60;3.40;;;;;;;16.50;100.00;96298.03;5088968;28;20472;-77
2022/06/07 00:22:49;;;;;;;4.90;4.50;;;;;;;16.54;100.00;96319.41;5071564;28;20469;-77
2022/06/07 00:25:16;;;;;;;4.43;4.03;;;;;;;16.03;100.00;96305.88;5072152;28;20425;-77
2022/06/07 00:27:43;;;;;;;4.50;4.03;;;;;;;15.93;100.00;96308.03;5071895;28;20494;-77
2022/06/07 00:30:11;;;;;;;4.63;4.30;;;;;;;15.80;100.00;96288.03;5071652;28;20527;-77
2022/06/07 00:32:39;;;;;;;4.77;3.90;;;;;;;15.61;100.00;96250.81;5073307;28;20436;-77
2022/06/07 00:35:07;;;;;;;6.37;4.33;;;;;;;15.64;100.00;96255.47;5072471;28;20836;-77
2022/06/07 00:37:34;;;;;;;4.10;3.73;;;;;;;15.56;100.00;96249.22;5089264;28;20436;-77
2022/06/07 00:40:00;;;;;;;4.60;4.10;;;;;;;15.83;100.00;96289.22;5073194;28;20436;-77
2022/06/07 00:42:27;;;;;;;4.73;4.33;;;;;;;15.41;100.00;96249.38;5075680;28;20464;-77
2022/06/07 00:44:54;;;;;;;4.70;4.20;;;;;;;15.24;100.00;96256.75;5075996;28;20482;-77
2022/06/07 00:47:24;;;;;;;5.10;4.70;;;;;;;15.38;100.00;96299.59;5075921;28;20837;-77
2022/06/07 00:50:24;;;;;;;4.37;3.97;;;;;;;15.52;100.00;96293.72;5075617;28;20955;-77
2022/06/07 00:52:50;;;;;;;4.47;4.17;;;;;;;15.61;100.00;96274.81;5032261;28;20488;-77
2022/06/07 00:55:17;;;;;;;4.13;3.73;;;;;;;15.77;100.00;96280.78;5087255;28;20804;-77
2022/06/07 00:57:47;;;;;;;4.03;3.70;;;;;;;15.73;100.00;96263.16;5096213;28;20428;-77
2022/06/07 01:00:27;;;;;;;4.63;4.27;;;;;;;15.91;100.00;96283.63;5095633;28;20449;-77
2022/06/07 01:02:56;;;;;;;4.30;4.00;;;;;;;15.91;100.00;96280.19;5094984;28;20502;-77
2022/06/07 01:05:23;;;;;;;4.70;4.27;;;;;;;15.83;100.00;96271.31;5078488;28;20439;-77
2022/06/07 01:10:44;;;;;;;6.90;5.03;;;;;;;15.78;100.00;96252.97;5090521;28;20436;-77
2022/06/07 01:13:21;;;;;;;4.40;4.10;;;;;;;15.37;100.00;96223.47;5092085;28;21101;-77
2022/06/07 01:15:51;;;;;;;4.87;4.30;;;;;;;15.47;100.00;96227.38;5074764;28;20523;-77
2022/06/07 01:18:18;;;;;;;4.90;4.53;;;;;;;15.58;100.00;96259.50;5074046;28;20428;-77
2022/06/07 01:20:45;;;;;;;5.77;5.23;;;;;;;15.46;100.00;96241.06;5081250;28;20431;-77
2022/06/07 01:23:12;;;;;;;5.20;4.80;;;;;;;16.04;100.00;96281.50;5093777;28;20475;-77
2022/06/07 01:25:40;;;;;;;7.80;4.60;;;;;;;15.83;100.00;96254.56;5086731;28;20432;-77
2022/06/07 01:28:07;;;;;;;4.60;4.30;;;;;;;15.62;100.00;96255.03;5090706;28;20777;-77
2022/06/07 01:30:33;;;;;;;5.83;4.80;;;;;;;15.38;100.00;96219.66;5073837;28;20494;-77
2022/06/07 01:33:00;;;;;;;4.47;4.00;;;;;;;15.54;100.00;96269.38;5088307;28;20828;-77
2022/06/07 01:35:27;;;;;;;5.10;4.00;;;;;;;15.20;100.00;96255.16;5094265;28;20545;-77
2022/06/07 01:37:55;;;;;;;4.20;3.80;;;;;;;15.04;100.00;96266.72;5077389;28;20550;-77
2022/06/07 01:43:07;;;;;;;5.30;4.80;;;;;;;14.99;100.00;96213.75;5077181;28;20472;-77
2022/06/07 01:45:34;;;;;;;5.33;4.83;;;;;;;15.18;100.00;96246.75;5085038;28;20443;-77
2022/06/07 01:48:01;;;;;;;8.77;4.47;;;;;;;15.30;100.00;96262.53;5060205;28;20463;-77
2022/06/07 01:50:27;;;;;;;5.13;4.73;;;;;;;15.42;100.00;96257.00;5072990;28;20851;-77
2022/06/07 01:52:54;;;;;;;5.43;4.70;;;;;;;15.16;100.00;96252.44;5074039;28;20449;-77
2022/06/07 01:55:27;;;;;;;4.63;4.27;;;;;;;15.45;100.00;96250.19;5074619;28;20448;-77
2022/06/07 01:58:02;;;;;;;13.90;5.67;;;;;;;15.60;100.00;96278.59;5074086;28;20444;-77
2022/06/07 02:00:29;;;;;;;7.03;5.00;;;;;;;15.46;100.00;96265.06;5074044;28;20436;-77
2022/06/07 02:02:56;;;;;;;4.97;4.57;;;;;;;15.49;100.00;96274.97;5073508;28;20476;-77
2022/06/07 02:05:23;;;;;;;5.33;4.13;;;;;;;15.38;100.00;96274.84;5073450;28;20507;-77
2022/06/07 02:07:54;;;;;;;5.30;4.90;;;;;;;15.11;100.00;96233.34;5058298;28;20473;-77
2022/06/07 02:10:26;;;;;;;5.57;4.77;;;;;;;15.12;100.00;96235.66;5074043;28;20437;-77
2022/06/07 02:12:56;;;;;;;7.90;4.17;;;;;;;15.08;100.00;96226.81;5073175;28;21042;-77
2022/06/07 02:15:23;;;;;;;4.30;3.90;;;;;;;15.38;100.00;96261.53;5073216;28;20447;-77
2022/06/07 02:17:52;;;;;;;9.23;4.23;;;;;;;15.47;100.00;96264.69;5073176;28;20425;-77
2022/06/07 02:20:37;;;;;;;4.47;4.17;;;;;;;15.54;100.00;96272.81;5088145;28;20435;-77
2022/06/07 02:23:05;;;;;;;4.83;4.53;;;;;;;15.28;100.00;96241.59;5072845;28;20907;-77
2022/06/07 02:25:37;;;;;;;4.70;4.30;;;;;;;15.55;100.00;96276.22;5073099;28;20440;-77
2022/06/07 02:28:05;;;;;;;4.17;3.87;;;;;;;15.38;100.00;96262.28;5072922;28;20440;-77
2022/06/07 02:30:31;;;;;;;5.23;4.73;;;;;;;15.56;100.00;96269.78;5056966;28;20597;-77
2022/06/07 02:32:58;;;;;;;5.40;4.90;;;;;;;15.42;100.00;96246.34;5056587;28;20461;-77
2022/06/07 02:35:25;;;;;;;4.30;4.00;;;;;;;15.46;100.00;96267.72;5073874;28;20520;-77
2022/06/07 02:37:52;;;;;;;5.17;4.67;;;;;;;15.14;100.00;96230.72;5072968;28;20486;-77
2022/06/07 02:40:19;;;;;;;5.57;4.30;;;;;;;15.21;100.00;96246.03;5072865;28;20874;-77
2022/06/07 02:42:45;;;;;;;7.23;4.97;;;;;;;15.33;100.00;96259.91;5073456;28;20460;-77
2022/06/07 02:45:12;;;;;;;5.80;5.17;;;;;;;15.34;100.00;96252.69;5084914;28;20467;-77
2022/06/07 02:47:39;;;;;;;6.40;4.60;;;;;;;15.32;100.00;96263.72;5072546;28;20437;-77
2022/06/07 02:50:12;;;;;;;6.63;4.57;;;;;;;15.22;100.00;96260.88;5089704;28;20467;-77
2022/06/07 02:52:43;;;;;;;5.37;4.97;;;;;;;15.17;100.00;96261.19;5072023;28;20690;-77
2022/06/07 02:55:18;;;;;;;5.53;5.13;;;;;;;15.24;100.00;96256.75;5072659;28;20443;-77
2022/06/07 02:57:46;;;;;;;5.67;4.60;;;;;;;15.07;100.00;96241.25;5071704;28;20440;-77
2022/06/07 03:00:18;;;;;;;4.83;4.43;;;;;;;15.38;100.00;96272.19;5070700;28;20464;-76
2022/06/07 03:02:44;;;;;;;5.63;5.10;;;;;;;15.38;100.00;96274.84;5069911;28;20500;-77
2022/06/07 03:05:13;;;;;;;5.53;4.93;;;;;;;15.33;100.00;96270.56;5056819;28;20490;-77
2022/06/07 03:07:47;;;;;;;9.40;4.77;;;;;;;15.08;100.00;96235.56;5073802;28;20906;-77
2022/06/07 03:10:14;;;;;;;4.63;4.30;;;;;;;15.05;100.00;96249.59;5072158;28;20498;-77
2022/06/07 03:12:43;;;;;;;6.37;5.13;;;;;;;15.16;100.00;96275.63;5072270;28;20481;-78
2022/06/07 03:15:15;;;;;;;6.13;4.73;;;;;;;15.05;100.00;96270.91;5057206;28;20440;-78
2022/06/07 03:17:44;;;;;;;9.77;4.90;;;;;;;14.97;100.00;96268.50;5072350;28;20451;-78
2022/06/07 03:20:13;;;;;;;6.10;5.30;;;;;;;14.59;100.00;96219.56;5060451;28;20865;-78
2022/06/07 03:22:42;;;;;;;5.27;4.73;;;;;;;14.82;100.00;96254.16;5092157;28;20947;-78
2022/06/07 03:25:11;;;;;;;5.10;4.60;;;;;;;14.73;100.00;96267.72;5092621;28;20428;-77
2022/06/07 03:27:40;;;;;;;6.27;5.77;;;;;;;14.67;100.00;96234.53;5075870;28;20436;-78
2022/06/07 03:30:12;;;;;;;7.90;5.27;;;;;;;14.85;100.00;96256.13;5076274;28;20700;-78
2022/06/07 03:32:42;;;;;;;7.03;6.33;;;;;;;15.00;100.00;96271.22;5092073;28;20479;-78
2022/06/07 03:35:11;;;;;;;4.43;4.00;;;;;;;14.97;100.00;96255.19;5091925;28;20451;-78
2022/06/07 03:37:38;;;;;;;5.50;5.10;;;;;;;14.84;100.00;96237.84;5059349;28;20453;-77
2022/06/07 03:40:08;;;;;;;5.30;4.90;;;;;;;14.84;100.00;96267.16;5086919;28;20483;-78
2022/06/07 03:42:36;;;;;;;5.60;5.00;;;;;;;14.45;100.00;96272.53;5071413;28;20548;-78
2022/06/07 03:45:04;;;;;;;6.80;5.60;;;;;;;14.64;100.00;96271.72;5071450;28;20459;-77
2022/06/07 03:47:31;;;;;;;6.67;6.07;;;;;;;14.34;100.00;96221.00;5070059;28;20437;-77
2022/06/07 03:49:58;;;;;;;6.00;5.10;;;;;;;14.33;100.00;96211.47;5053645;28;20440;-77
2022/06/07 03:52:28;;;;;;;6.37;5.87;;;;;;;14.54;100.00;96238.47;5070448;28;20436;-77
2022/06/07 03:54:54;;;;;;;5.30;4.90;;;;;;;14.54;100.00;96235.03;5061972;28;20842;-77
2022/06/07 03:57:25;;;;;;;6.67;5.97;;;;;;;14.83;100.00;96262.94;5089350;28;20434;-77
2022/06/07 03:59:56;;;;;;;5.97;5.47;;;;;;;14.61;100.00;96251.16;5070831;28;20474;-77
2022/06/07 04:02:23;;;;;;;5.33;4.83;;;;;;;14.60;100.00;96257.59;5070223;28;20460;-77
2022/06/07 04:04:50;;;;;;;4.83;4.43;;;;;;;14.41;100.00;96258.34;5070325;28;20440;-77
2022/06/07 04:10:06;;;;;;;5.97;5.37;;;;;;;14.68;100.00;96273.31;5069946;28;20455;-77
2022/06/07 04:12:42;;;;;;;4.90;4.50;;;;;;;14.26;100.00;96208.69;5071121;28;20452;-77
2022/06/07 04:15:09;;;;;;;7.33;6.73;;;;;;;14.70;100.00;96270.31;5069796;28;20823;-77
2022/06/07 04:17:37;;;;;;;8.47;4.93;;;;;;;14.59;100.00;96248.84;5070203;28;20455;-77
2022/06/07 04:20:17;;;;;;;5.90;5.40;;;;;;;14.61;100.00;96259.91;5070235;28;20463;-77
2022/06/07 04:22:44;;;;;;;7.90;5.87;;;;;;;14.49;100.00;96234.22;5069685;28;20472;-77
2022/06/07 04:25:11;;;;;;;5.47;4.97;;;;;;;14.56;100.00;96270.06;5069763;28;20443;-77
2022/06/07 04:27:40;;;;;;;5.70;5.30;;;;;;;14.70;100.00;96265.00;5070264;28;20837;-77
2022/06/07 04:30:07;;;;;;;7.67;6.47;;;;;;;14.89;100.00;96290.78;5078926;28;20429;-78
2022/06/07 04:32:39;;;;;;;6.87;6.23;;;;;;;14.36;100.00;96184.16;5082470;28;20462;-78
2022/06/07 04:35:06;;;;;;;7.70;5.60;;;;;;;14.98;100.00;96273.47;5082631;28;20440;-79
2022/06/07 04:37:34;;;;;;;5.80;5.30;;;;;;;14.49;100.00;96230.78;5078884;28;20475;-78
2022/06/07 04:40:06;;;;;;;5.80;5.40;;;;;;;14.62;100.00;96231.41;5084775;28;20444;-79
2022/06/07 04:42:34;;;;;;;5.70;5.17;;;;;;;14.88;100.00;96282.03;5089987;28;20480;-79
2022/06/07 04:45:14;;;;;;;7.07;6.47;;;;;;;14.86;100.00;96288.84;5090357;28;21008;-79
2022/06/07 04:48:02;;;;;;;6.40;5.80;;;;;;;14.90;100.00;96260.38;5086838;28;20791;-78
2022/06/07 04:50:32;;;;;;;7.37;6.63;;;;;;;14.95;100.00;96254.75;5086207;28;20436;-78
2022/06/07 04:52:59;;;;;;;8.70;6.47;;;;;;;15.22;100.00;96277.63;5085956;28;20484;-78
2022/06/07 04:55:27;;;;;;;5.93;5.43;;;;;;;15.03;100.00;96243.09;5087190;28;20504;-77
2022/06/07 04:57:55;;;;;;;7.07;6.47;;;;;;;15.51;100.00;96294.06;5084998;28;20432;-78
2022/06/07 05:00:22;;;;;;;6.93;6.43;;;;;;;15.49;100.00;96304.28;5086073;28;20436;-77
2022/06/07 05:02:58;;;;;;;11.50;6.57;;;;;;;15.44;100.00;96299.28;5086255;28;20476;-78
2022/06/07 05:05:26;;;;;;;7.77;6.50;;;;;;;15.27;100.00;96290.66;5085749;28;20442;-78
2022/06/07 05:07:54;;;;;;;8.37;7.57;;;;;;;15.11;100.00;96276.72;5085663;28;20440;-78
2022/06/07 05:10:22;;;;;;;6.90;6.37;;;;;;;14.92;100.00;96255.47;5084729;28;20933;-78
2022/06/07 05:12:55;;;;;;;7.30;6.80;;;;;;;15.05;100.00;96272.81;5085561;28;20950;-77
2022/06/07 05:15:27;;;;;;;7.63;6.47;;;;;;;15.06;100.00;96271.69;5086859;28;20448;-78
2022/06/07 05:18:01;;;;;;;7.07;6.40;;;;;;;15.08;100.00;96250.78;5087269;28;20436;-77
2022/06/07 05:20:31;;;;;;;5.00;4.60;;;;;;;15.01;100.00;96242.69;5086629;28;20433;-78
2022/06/07 05:23:06;;;;;;;5.73;4.63;;;;;;;15.27;100.00;96277.34;5087156;28;20480;-78
2022/06/07 05:25:36;;;;;;;5.97;5.40;;;;;;;15.42;100.00;96299.66;5087397;28;20447;-78
2022/06/07 05:28:04;;;;;;;5.70;5.20;;;;;;;15.34;100.00;96284.66;5088698;28;20791;-78
2022/06/07 05:30:34;;;;;;;5.23;4.83;;;;;;;15.70;100.00;96298.56;5089069;28;20462;-77
2022/06/07 05:33:07;;;;;;;5.57;5.17;;;;;;;15.31;100.00;96251.53;5090077;28;20459;-78
2022/06/07 05:35:51;;;;;;;4.70;4.30;;;;;;;15.74;100.00;96302.03;5088759;28;20436;-78
2022/06/07 05:38:21;;;;;;;6.13;5.30;;;;;;;15.84;100.00;96306.75;5089927;28;20960;-77
2022/06/07 05:40:56;;;;;;;4.70;4.40;;;;;;;15.40;100.00;96255.84;5090222;28;20446;-77
2022/06/07 05:43:24;;;;;;;6.40;5.00;;;;;;;15.28;100.00;96254.91;5090589;28;20530;-77
2022/06/07 05:45:55;;;;;;;6.50;4.67;;;;;;;15.68;100.00;96301.59;5089644;28;20464;-77
2022/06/07 05:48:35;;;;;;;6.43;5.53;;;;;;;15.69;100.00;96289.78;5090048;28;20529;-77
2022/06/07 05:51:07;;;;;;;4.80;4.40;;;;;;;15.34;100.00;96242.03;5090758;28;20456;-77
2022/06/07 05:53:34;;;;;;;4.30;4.00;;;;;;;15.83;100.00;96313.97;5074058;28;20461;-77
2022/06/07 05:56:06;;;;;;;5.50;5.00;;;;;;;15.84;100.00;96312.84;5091166;28;20440;-77
2022/06/07 05:58:34;;;;;;;5.03;4.63;;;;;;;15.95;100.00;96326.34;5088720;28;20453;-78
2022/06/07 06:01:05;;;;;;;5.20;4.70;;;;;;;15.77;100.00;96288.00;5089431;28;20436;-77
2022/06/07 06:03:31;;;;;;;6.00;5.47;;;;;;;15.76;100.00;96300.56;5089572;28;20496;-78
2022/06/07 06:05:59;;;;;;;5.03;4.53;;;;;;;15.80;100.00;96308.59;5096876;28;20515;-77
2022/06/07 06:11:22;;;;;;;8.07;4.13;;;;;;;16.09;100.00;96323.09;5112561;28;20458;-78
2022/06/07 06:14:03;;;;;;;5.40;4.90;;;;;;;15.70;100.00;96291.31;5111846;28;20466;-77
2022/06/07 06:16:31;;;;;;;4.67;4.30;;;;;;;16.00;100.00;96314.56;5095153;28;20802;-77
2022/06/07 06:18:59;;;;;;;6.17;5.60;;;;;;;15.98;100.00;96324.84;5105319;28;20504;-77
2022/06/07 06:21:38;;;;;;;4.83;4.53;;;;;;;15.95;100.00;96321.00;5086554;28;20440;-78
2022/06/07 06:24:06;;;;;;;4.47;4.17;;;;;;;15.41;100.00;96238.72;5082877;28;20470;-78
2022/06/07 06:26:32;;;;;;;10.03;5.97;;;;;;;15.62;100.00;96279.81;5098648;28;20432;-78
2022/06/07 06:29:00;;;;;;;6.40;5.80;;;;;;;15.57;100.00;96282.72;5086699;28;20502;-78
2022/06/07 06:31:28;;;;;;;5.93;5.20;;;;;;;15.78;100.00;96300.97;5103327;28;21030;-77
2022/06/07 06:33:55;;;;;;;6.73;5.70;;;;;;;15.54;100.00;96275.47;5102511;28;20962;-78
2022/06/07 06:36:27;;;;;;;6.20;5.70;;;;;;;15.85;100.00;96322.38;5070110;28;20424;-78
2022/06/07 06:38:57;;;;;;;6.20;5.37;;;;;;;15.24;100.00;96222.13;5082273;28;20449;-79
2022/06/07 06:41:30;;;;;;;5.20;4.73;;;;;;;15.87;100.00;96317.44;5082124;28;20439;-78
2022/06/07 06:44:03;;;;;;;6.20;5.03;;;;;;;15.73;100.00;96298.59;5082372;28;20475;-78
2022/06/07 06:46:53;;;;;;;4.77;4.37;;;;;;;15.76;100.00;96292.56;5088085;28;20444;-78
2022/06/07 06:49:21;;;;;;;6.20;5.67;;;;;;;16.04;100.00;96304.75;5077768;28;21010;-79
2022/06/07 06:51:48;;;;;;;6.50;6.00;;;;;;;16.08;100.00;96318.88;5080852;28;20531;-78
2022/06/07 06:54:19;;;;;;;5.20;4.80;;;;;;;16.25;100.00;96315.66;5084470;28;20464;-78
2022/06/07 06:56:54;;;;;;;4.70;4.17;;;;;;;16.22;100.00;96319.06;5074927;28;20475;-78
2022/06/07 06:59:25;;;;;;;12.23;3.57;;;;;;;16.05;100.00;96304.38;5080524;28;20865;-78
2022/06/07 07:01:55;;;;;;;4.00;3.70;;;;;;;16.14;100.00;96298.75;5080306;28;20433;-78
2022/06/07 07:04:25;;;;;;;4.40;4.10;;;;;;;16.50;100.00;96313.28;5080339;28;20476;-78
2022/06/07 07:06:54;;;;;;;5.70;3.83;;;;;;;16.66;100.00;96303.16;5082406;28;20455;-79
2022/06/07 07:09:24;;;;;;;4.83;4.33;;;;;;;16.69;100.00;96323.03;5080608;28;20467;-78
2022/06/07 07:11:58;;;;;;;4.57;3.93;;;;;;;16.55;100.00;96315.63;5079516;28;20459;-78
2022/06/07 07:14:48;;;;;;;6.97;3.87;;;;;;;16.20;100.00;96315.97;5080863;28;20819;-78
2022/06/07 07:17:20;;;;;;;4.20;3.90;;;;;;;16.07;100.00;96322.69;5086474;28;20462;-81
2022/06/07 07:19:50;;;;;;;4.50;3.50;;;;;;;16.41;100.00;96331.47;5100878;28;20439;-79
2022/06/07 07:22:19;;;;;;;4.13;3.13;;;;;;;16.25;100.00;96294.31;5094570;28;20444;-78
2022/06/07 07:24:46;;;;;;;3.63;3.30;;;;;;;16.09;100.00;96273.16;5079445;28;20456;-78
2022/06/07 07:27:17;;;;;;;3.63;3.40;;;;;;;16.59;100.00;96307.66;5080019;28;20445;-78
2022/06/07 07:29:44;;;;;;;5.30;4.30;;;;;;;16.51;100.00;96322.81;5091532;28;20455;-78
2022/06/07 07:32:14;;;;;;;3.57;3.37;;;;;;;16.45;100.00;96311.72;5080379;28;20459;-78
2022/06/07 07:34:52;;;;;;;3.90;3.20;;;;;;;16.27;100.00;96279.47;5080397;28;20479;-78
2022/06/07 07:37:20;;;;;;;3.00;2.63;;;;;;;16.55;100.00;96319.06;5078597;28;20425;-78
2022/06/07 07:39:53;;;;;;;3.27;3.07;;;;;;;16.69;100.00;96325.72;5081806;28;20437;-78
2022/06/07 07:42:23;;;;;;;3.77;3.47;;;;;;;16.71;100.00;96321.56;5080709;28;20966;-79
2022/06/07 07:45:00;;;;;;;3.80;2.90;;;;;;;16.35;100.00;96239.53;5079067;28;20510;-78
2022/06/07 07:47:27;;;;;;;4.67;4.23;;;;;;;16.69;100.00;96270.41;5079619;28;20540;-77
2022/06/07 07:49:54;;;;;;;3.13;2.90;;;;;;;16.95;100.00;96293.53;5093151;28;20952;-80
2022/06/07 07:52:23;;;;;;;2.90;2.70;;;;;;;16.92;100.00;96282.84;5090285;28;20530;-77
2022/06/07 07:54:57;;;;;;;2.60;2.40;;;;;;;16.62;100.00;96288.25;5088608;28;20486;-77
2022/06/07 07:57:24;;;;;;;4.10;3.20;;;;;;;17.00;100.00;96247.03;5091738;28;20467;-78
2022/06/07 07:59:52;;;;;;;10.50;3.03;;;;;;;17.28;100.00;96287.34;5080749;28;20518;-78
2022/06/07 08:02:21;;;;;;;6.13;2.40;;;;;;;17.68;100.00;96321.28;5097050;28;20463;-78
2022/06/07 08:05:02;;;;;;;2.13;2.03;;;;;;;18.05;100.00;96296.25;5083379;28;20467;-78
2022/06/07 08:07:32;;;;;;;2.00;1.70;;;;;;;18.28;100.00;96323.50;5097607;28;20448;-78
2022/06/07 08:10:19;;;;;;;2.30;1.77;;;;;;;17.82;100.00;96293.84;5097409;28;20430;-78
2022/06/07 08:12:54;;;;;;;1.50;1.40;;;;;;;17.41;100.00;96306.53;5095170;28;20459;-77
2022/06/07 08:15:23;;;;;;;2.97;1.83;;;;;;;17.53;100.00;96306.25;5067409;28;20552;-78
2022/06/07 08:17:52;;;;;;;4.13;1.93;;;;;;;17.57;100.00;96319.63;5094565;28;20481;-78
2022/06/07 08:20:20;;;;;;;3.77;1.77;;;;;;;17.38;100.00;96312.63;5077801;28;20442;-78
2022/06/07 08:22:47;;;;;;;5.73;1.90;;;;;;;17.12;100.00;96286.84;5066316;28;20460;-78
2022/06/07 08:25:13;;;;;;;1.70;1.60;;;;;;;17.24;100.00;96310.63;5075202;28;20475;-78
2022/06/07 08:27:40;;;;;;;1.90;1.70;;;;;;;17.55;100.00;96325.34;5074813;28;20437;-78
2022/06/07 08:30:08;;;;;;;3.70;2.13;;;;;;;17.32;100.00;96287.38;5074436;28;21030;-78
2022/06/07 08:32:37;;;;;;;2.10;2.00;;;;;;;17.34;100.00;96295.78;5073669;28;20471;-77
2022/06/07 08:37:51;;;;;;;2.93;1.83;;;;;;;17.37;100.00;96292.38;5095242;28;20419;-78
2022/06/07 08:40:33;;;;;;;3.43;1.93;;;;;;;17.53;100.00;96319.63;5094161;28;20946;-78
2022/06/07 08:43:05;;;;;;;2.43;2.20;;;;;;;17.34;100.00;96287.75;5094310;28;20943;-78
2022/06/07 08:45:37;;;;;;;3.03;2.23;;;;;;;17.11;100.00;96290.66;5093248;28;20446;-78
2022/06/07 08:48:13;;;;;;;4.30;2.00;;;;;;;17.35;100.00;96319.47;5080899;28;20427;-78
2022/06/07 08:50:44;;;;;;;2.30;1.60;;;;;;;17.24;100.00;96318.63;5082242;28;20420;-78
2022/06/07 08:53:28;;;;;;;5.90;2.23;;;;;;;17.31;100.00;96323.25;5073651;28;20794;-78
2022/06/07 08:56:01;;;;;;;2.70;2.50;;;;;;;17.37;100.00;96321.78;5073524;28;20466;-78
2022/06/07 08:58:29;;;;;;;3.23;1.90;;;;;;;17.72;100.00;96315.94;5073574;28;20450;-78
2022/06/07 09:01:03;;;;;;;3.37;2.57;;;;;;;17.65;100.00;96279.22;5076807;28;20447;-78
2022/06/07 09:03:52;;;;;;;2.60;1.70;;;;;;;18.11;100.00;96316.16;5078912;28;20545;-78
2022/06/07 09:06:29;;;;;;;2.23;1.30;;;;;;;18.01;99.08;96303.50;5096444;28;20444;-78
2022/06/07 09:08:58;;;;;;;3.00;2.10;;;;;;;17.81;100.00;96315.63;5077914;28;20462;-78
2022/06/07 09:14:34;;;;;;;3.03;1.60;;;;;;;18.31;100.00;96317.41;5081611;28;20456;-78
2022/06/07 09:17:04;;;;;;;3.67;2.20;;;;;;;18.21;100.00;96303.97;5081099;28;21010;-78
2022/06/07 09:19:32;;;;;;;6.93;1.73;;;;;;;18.41;97.89;96321.25;5081898;28;20429;-78
2022/06/07 09:22:06;;;;;;;3.00;2.07;;;;;;;18.11;95.80;96316.16;5081982;28;20437;-78
2022/06/07 09:24:40;;;;;;;2.20;1.90;;;;;;;17.93;97.27;96283.22;5075737;28;20890;-77
2022/06/07 09:27:19;;;;;;;1.80;1.70;;;;;;;17.97;93.29;96305.38;5075720;28;20439;-78
2022/06/07 09:30:19;;;;;;;1.87;1.57;;;;;;;17.94;95.14;96314.94;5076120;28;20420;-78
2022/06/07 09:32:50;;;;;;;4.00;1.43;;;;;;;18.20;95.10;96316.59;5071341;28;20513;-78
2022/06/07 09:35:41;;;;;;;2.13;1.57;;;;;;;18.25;94.10;96316.22;5078386;28;20482;-78
2022/06/07 09:38:15;;;;;;;1.37;1.27;;;;;;;18.05;92.60;96309.66;5077317;28;20437;-79
2022/06/07 09:40:57;;;;;;;1.50;1.23;;;;;;;17.94;92.70;96300.78;5078279;28;20448;-79
2022/06/07 09:43:37;;;;;;;2.20;1.57;;;;;;;17.81;93.22;96278.19;5078853;28;20459;-79
2022/06/07 09:46:10;;;;;;;2.50;1.50;;;;;;;18.07;93.56;96310.03;5078303;28;20440;-79
2022/06/07 09:48:42;;;;;;;4.90;1.60;;;;;;;18.30;93.68;96309.75;5078499;28;20498;-79
2022/06/07 09:51:18;;;;;;;1.50;1.40;;;;;;;18.63;95.67;96305.28;5080647;28;20449;-78
2022/06/07 09:54:24;;;;;;;1.80;1.50;;;;;;;19.03;91.59;96304.22;5079062;28;20456;-79
2022/06/07 09:57:17;;;;;;;1.97;1.70;;;;;;;18.66;91.31;96310.66;4992304;28;20817;-78
2022/06/07 09:59:55;;;;;;;3.90;1.87;;;;;;;18.54;90.73;96316.34;5001562;28;20999;-78
2022/06/07 10:02:22;;;;;;;2.40;1.90;;;;;;;18.62;91.55;96309.88;5018502;28;20435;-78
2022/06/07 10:04:55;;;;;;;1.90;1.80;;;;;;;18.79;93.38;96314.53;5003793;28;20475;-78
2022/06/07 10:07:36;;;;;;;2.10;1.90;;;;;;;18.64;92.95;96304.16;5019467;28;20432;-78
2022/06/07 10:10:24;;;;;;;2.40;1.70;;;;;;;18.55;91.48;96301.78;5011562;28;20426;-78
2022/06/07 10:13:13;;;;;;;1.80;1.70;;;;;;;18.66;91.49;96275.84;5021498;28;20482;-78
2022/06/07 10:15:50;;;;;;;2.80;1.70;;;;;;;19.15;89.08;96275.13;5017764;28;20446;-78
2022/06/07 10:18:38;;;;;;;2.00;1.90;;;;;;;19.76;87.50;96301.91;5018165;28;20994;-77
2022/06/07 10:21:20;;;;;;;1.60;1.20;;;;;;;19.77;81.48;96303.47;5018181;28;20446;-78
2022/06/07 10:23:54;;;;;;;1.73;1.33;;;;;;;19.32;80.91;96302.31;5013315;28;20503;-78
2022/06/07 10:26:27;;;;;;;1.87;1.33;;;;;;;19.19;80.50;96307.31;5010838;28;20441;-78
2022/06/07 10:29:23;;;;;;;2.00;1.47;;;;;;;18.92;82.01;96279.34;5096521;28;20431;-78
2022/06/07 10:32:28;;;;;;;1.20;1.10;;;;;;;19.11;84.03;96306.53;5095998;28;20435;-78
2022/06/07 10:35:15;;;;;;;1.33;1.23;;;;;;;19.03;82.71;96304.22;5076725;28;20454;-76
2022/06/07 10:38:15;;;;;;;1.20;1.10;;;;;;;18.74;81.05;96290.03;5109842;28;20431;-78
2022/06/07 10:41:01;;;;;;;1.70;1.40;;;;;;;18.43;82.94;96294.91;5114073;28;20423;-78
2022/06/07 10:43:33;;;;;;;1.87;1.40;;;;;;;18.08;87.10;96284.81;5099003;28;20494;-78
2022/06/07 10:46:00;;;;;;;3.43;1.63;;;;;;;18.96;85.85;96280.84;5112253;28;20435;-78
2022/06/07 10:49:02;;;;;;;3.10;1.53;;;;;;;19.36;83.91;96290.44;5099315;28;21064;-78
2022/06/07 10:54:29;;;;;;;1.47;1.27;;;;;;;19.30;82.97;96254.44;5086575;28;20452;-76
2022/06/07 10:57:34;;;;;;;1.53;1.30;;;;;;;19.64;78.91;96288.94;5088200;28;20420;-76
2022/06/07 11:00:19;;;;;;;2.43;1.70;;;;;;;19.34;78.13;96265.16;5061055;28;20936;-76
2022/06/07 11:03:23;;;;;;;1.77;1.57;;;;;;;19.77;79.74;96280.09;5071142;28;20456;-77
2022/06/07 11:11:38;;;;;;;1.97;1.70;;;;;;;19.53;72.82;96246.00;5072829;28;20444;-77
2022/06/07 11:14:16;;;;;;;3.00;1.57;;;;;;;20.07;71.80;96282.31;5072768;28;20944;-76
2022/06/07 11:17:13;;;;;;;3.53;1.20;;;;;;;19.89;70.84;96252.06;5071065;28;20493;-77
2022/06/07 11:19:40;;;;;;;2.57;1.40;;;;;;;20.24;71.33;96285.31;5071347;28;20448;-77
2022/06/07 11:22:15;;;;;;;1.90;1.40;;;;;;;20.01;71.63;96277.72;5070596;28;20594;-77
2022/06/07 11:24:54;;;;;;;4.53;1.40;;;;;;;20.03;68.99;96222.50;5070698;28;20494;-76
2022/06/07 11:27:22;;;;;;;2.00;1.30;;;;;;;20.26;70.38;96243.47;5071490;28;20480;-77
2022/06/07 11:30:40;;;;;;;1.40;1.30;;;;;;;20.81;69.38;96272.38;5071172;28;20436;-77
2022/06/07 11:33:31;;;;;;;1.70;1.60;;;;;;;20.78;68.30;96283.16;5071165;28;21061;-77
2022/06/07 11:36:13;;;;;;;1.23;1.13;;;;;;;20.93;67.74;96274.59;5054464;28;20933;-77
2022/06/07 11:38:56;;;;;;;1.57;1.47;;;;;;;20.52;68.01;96269.09;5072446;28;20421;-76
2022/06/07 11:41:37;;;;;;;1.40;1.30;;;;;;;20.21;68.91;96260.00;5071057;28;20810;-76
2022/06/07 11:44:10;;;;;;;3.77;1.33;;;;;;;19.78;71.31;96259.41;5071302;28;20828;-77
2022/06/07 11:46:47;;;;;;;1.50;1.33;;;;;;;19.67;71.13;96275.50;5071056;28;20448;-76
2022/06/07 11:49:23;;;;;;;2.63;1.40;;;;;;;19.99;71.50;96270.06;5071139;28;21057;-77
2022/06/07 11:52:11;;;;;;;1.57;1.10;;;;;;;19.69;72.43;96270.53;5071185;28;20440;-77
2022/06/07 11:54:51;;;;;;;2.90;2.10;;;;;;;20.13;73.28;96263.88;5076334;28;20460;-76
2022/06/07 11:57:56;;;;;;;2.63;1.37;;;;;;;20.20;70.99;96268.44;5091153;28;20475;-76
2022/06/07 12:00:23;;;;;;;1.57;1.43;;;;;;;19.38;71.86;96274.75;5058305;28;20448;-76
2022/06/07 12:03:02;;;;;;;1.47;1.37;;;;;;;19.41;73.54;96267.84;5072121;28;20461;-77
2022/06/07 12:05:40;;;;;;;1.90;1.67;;;;;;;19.38;72.86;96269.41;5072052;28;20490;-76
2022/06/07 12:08:16;;;;;;;4.17;1.57;;;;;;;19.53;74.23;96270.16;5070767;28;20443;-76
2022/06/07 12:11:01;;;;;;;3.40;1.33;;;;;;;19.63;73.91;96255.19;5070553;28;20463;-76
2022/06/07 12:13:49;;;;;;;1.70;1.60;;;;;;;19.89;72.93;96240.56;5070347;28;20529;-76
2022/06/07 12:16:27;;;;;;;6.73;2.40;;;;;;;20.38;71.93;96253.78;5070285;28;20490;-76
2022/06/07 12:18:56;;;;;;;3.10;1.40;;;;;;;20.60;69.46;96251.00;5071933;28;20543;-76